sensor_id;sensor_type;location;lat;lon;timestamp;P1;durP1;ratioP1;P2;durP2;ratioP2
64457;SDS011;58438;51.200;7.252;2022-11-11T00:01:35;14.45;;;6.80;;
64457;SDS011;58438;51.200;7.252;2022-11-11T00:04:22;13.38;;;6.75;;
64457;SDS011;58438;51.200;7.252;2022-11-11T00:07:10;14.98;;;7.28;;
64457;SDS011;58438;51.200;7.252;2022-11-11T00:09:57;13.88;;;7.00;;
64457;SDS011;58438;51.200;7.252;2022-11-11T00:12:44;14.10;;;7.25;;
64457;SDS011;58438;51.200;7.252;2022-11-11T00:15:35;17.63;;;8.32;;
64457;SDS011;58438;51.200;7.252;2022-11-11T00:18:22;14.30;;;6.25;;
64457;SDS011;58438;51.200;7.252;2022-11-11T00:21:29;17.45;;;7.32;;
64457;SDS011;58438;51.200;7.252;2022-11-11T00:24:34;16.23;;;6.85;;
64457;SDS011;58438;51.200;7.252;2022-11-11T00:27:38;16.80;;;7.22;;
64457;SDS011;58438;51.200;7.252;2022-11-11T00:30:26;15.23;;;7.80;;
64457;SDS011;58438;51.200;7.252;2022-11-11T00:33:14;17.95;;;6.93;;
64457;SDS011;58438;51.200;7.252;2022-11-11T00:36:02;14.50;;;7.30;;
64457;SDS011;58438;51.200;7.252;2022-11-11T00:38:49;19.00;;;7.75;;
64457;SDS011;58438;51.200;7.252;2022-11-11T00:41:37;18.10;;;8.10;;
64457;SDS011;58438;51.200;7.252;2022-11-11T00:44:25;16.42;;;7.68;;
64457;SDS011;58438;51.200;7.252;2022-11-11T00:47:12;16.58;;;7.95;;
64457;SDS011;58438;51.200;7.252;2022-11-11T00:53:23;15.70;;;7.30;;
64457;SDS011;58438;51.200;7.252;2022-11-11T00:56:12;13.77;;;6.93;;
64457;SDS011;58438;51.200;7.252;2022-11-11T00:58:59;15.73;;;7.32;;
64457;SDS011;58438;51.200;7.252;2022-11-11T01:01:46;12.88;;;6.20;;
64457;SDS011;58438;51.200;7.252;2022-11-11T01:04:34;14.57;;;6.72;;
64457;SDS011;58438;51.200;7.252;2022-11-11T01:07:21;18.92;;;7.40;;
64457;SDS011;58438;51.200;7.252;2022-11-11T01:10:10;17.58;;;7.63;;
64457;SDS011;58438;51.200;7.252;2022-11-11T01:12:57;20.67;;;7.05;;
64457;SDS011;58438;51.200;7.252;2022-11-11T01:15:58;16.83;;;7.63;;
64457;SDS011;58438;51.200;7.252;2022-11-11T01:18:48;15.23;;;6.60;;
64457;SDS011;58438;51.200;7.252;2022-11-11T01:21:38;18.90;;;6.95;;
64457;SDS011;58438;51.200;7.252;2022-11-11T01:24:28;16.52;;;6.43;;
64457;SDS011;58438;51.200;7.252;2022-11-11T01:27:19;16.55;;;7.22;;
64457;SDS011;58438;51.200;7.252;2022-11-11T01:30:09;14.32;;;7.00;;
64457;SDS011;58438;51.200;7.252;2022-11-11T01:33:00;16.95;;;7.07;;
64457;SDS011;58438;51.200;7.252;2022-11-11T01:35:50;13.93;;;7.65;;
64457;SDS011;58438;51.200;7.252;2022-11-11T01:38:40;19.45;;;7.15;;
64457;SDS011;58438;51.200;7.252;2022-11-11T01:41:31;15.38;;;6.55;;
64457;SDS011;58438;51.200;7.252;2022-11-11T01:44:41;15.13;;;7.13;;
64457;SDS011;58438;51.200;7.252;2022-11-11T01:47:30;17.17;;;7.07;;
64457;SDS011;58438;51.200;7.252;2022-11-11T01:51:02;16.83;;;7.28;;
64457;SDS011;58438;51.200;7.252;2022-11-11T01:53:51;13.68;;;6.80;;
64457;SDS011;58438;51.200;7.252;2022-11-11T01:56:43;17.70;;;6.90;;
64457;SDS011;58438;51.200;7.252;2022-11-11T01:59:34;12.05;;;6.65;;
64457;SDS011;58438;51.200;7.252;2022-11-11T02:02:29;14.98;;;6.72;;
64457;SDS011;58438;51.200;7.252;2022-11-11T02:05:20;16.52;;;7.88;;
64457;SDS011;58438;51.200;7.252;2022-11-11T02:08:27;14.02;;;6.55;;
64457;SDS011;58438;51.200;7.252;2022-11-11T02:11:21;16.65;;;6.78;;
64457;SDS011;58438;51.200;7.252;2022-11-11T02:14:24;16.40;;;7.38;;
64457;SDS011;58438;51.200;7.252;2022-11-11T02:17:28;16.17;;;6.97;;
64457;SDS011;58438;51.200;7.252;2022-11-11T02:20:20;11.90;;;6.93;;
64457;SDS011;58438;51.200;7.252;2022-11-11T02:23:11;14.18;;;6.55;;
64457;SDS011;58438;51.200;7.252;2022-11-11T02:26:04;11.75;;;6.05;;
64457;SDS011;58438;51.200;7.252;2022-11-11T02:28:54;14.75;;;7.07;;
64457;SDS011;58438;51.200;7.252;2022-11-11T02:31:45;11.02;;;6.82;;
64457;SDS011;58438;51.200;7.252;2022-11-11T02:34:34;18.02;;;7.63;;
64457;SDS011;58438;51.200;7.252;2022-11-11T02:37:21;12.52;;;6.30;;
64457;SDS011;58438;51.200;7.252;2022-11-11T02:40:09;13.38;;;4.78;;
64457;SDS011;58438;51.200;7.252;2022-11-11T02:43:00;13.77;;;6.75;;
64457;SDS011;58438;51.200;7.252;2022-11-11T02:45:47;12.35;;;6.60;;
64457;SDS011;58438;51.200;7.252;2022-11-11T02:48:34;17.77;;;6.85;;
64457;SDS011;58438;51.200;7.252;2022-11-11T02:51:22;13.10;;;6.10;;
64457;SDS011;58438;51.200;7.252;2022-11-11T02:54:09;15.15;;;6.50;;
64457;SDS011;58438;51.200;7.252;2022-11-11T02:56:56;9.60;;;6.50;;
64457;SDS011;58438;51.200;7.252;2022-11-11T02:59:54;14.25;;;6.72;;
64457;SDS011;58438;51.200;7.252;2022-11-11T03:02:43;11.23;;;5.63;;
64457;SDS011;58438;51.200;7.252;2022-11-11T03:05:30;14.43;;;6.18;;
64457;SDS011;58438;51.200;7.252;2022-11-11T03:08:17;11.60;;;6.05;;
64457;SDS011;58438;51.200;7.252;2022-11-11T03:11:04;11.07;;;5.90;;
64457;SDS011;58438;51.200;7.252;2022-11-11T03:13:52;14.15;;;6.30;;
64457;SDS011;58438;51.200;7.252;2022-11-11T03:16:40;13.50;;;6.72;;
64457;SDS011;58438;51.200;7.252;2022-11-11T03:19:45;17.50;;;6.18;;
64457;SDS011;58438;51.200;7.252;2022-11-11T03:22:32;15.85;;;7.03;;
64457;SDS011;58438;51.200;7.252;2022-11-11T03:25:39;10.23;;;6.05;;
64457;SDS011;58438;51.200;7.252;2022-11-11T03:28:26;13.73;;;5.90;;
64457;SDS011;58438;51.200;7.252;2022-11-11T03:31:14;10.60;;;6.00;;
64457;SDS011;58438;51.200;7.252;2022-11-11T03:34:02;14.85;;;5.65;;
64457;SDS011;58438;51.200;7.252;2022-11-11T03:37:04;14.68;;;5.78;;
64457;SDS011;58438;51.200;7.252;2022-11-11T03:42:54;11.63;;;5.45;;
64457;SDS011;58438;51.200;7.252;2022-11-11T03:45:49;13.80;;;5.68;;
64457;SDS011;58438;51.200;7.252;2022-11-11T03:48:36;12.32;;;6.25;;
64457;SDS011;58438;51.200;7.252;2022-11-11T03:51:25;11.20;;;5.50;;
64457;SDS011;58438;51.200;7.252;2022-11-11T03:54:12;16.25;;;6.30;;
64457;SDS011;58438;51.200;7.252;2022-11-11T03:56:59;15.85;;;6.35;;
64457;SDS011;58438;51.200;7.252;2022-11-11T04:00:04;9.88;;;5.97;;
64457;SDS011;58438;51.200;7.252;2022-11-11T04:03:03;8.93;;;5.18;;
64457;SDS011;58438;51.200;7.252;2022-11-11T04:06:08;9.30;;;4.57;;
64457;SDS011;58438;51.200;7.252;2022-11-11T04:09:15;11.13;;;5.43;;
64457;SDS011;58438;51.200;7.252;2022-11-11T04:12:19;11.73;;;5.55;;
64457;SDS011;58438;51.200;7.252;2022-11-11T04:15:07;16.13;;;5.95;;
64457;SDS011;58438;51.200;7.252;2022-11-11T04:18:11;8.70;;;5.03;;
64457;SDS011;58438;51.200;7.252;2022-11-11T04:20:58;10.75;;;5.35;;
64457;SDS011;58438;51.200;7.252;2022-11-11T04:27:12;14.77;;;5.25;;
64457;SDS011;58438;51.200;7.252;2022-11-11T04:29:58;9.48;;;5.00;;
64457;SDS011;58438;51.200;7.252;2022-11-11T04:32:45;11.35;;;5.68;;
64457;SDS011;58438;51.200;7.252;2022-11-11T04:35:32;9.95;;;5.22;;
64457;SDS011;58438;51.200;7.252;2022-11-11T04:38:20;12.48;;;5.55;;
64457;SDS011;58438;51.200;7.252;2022-11-11T04:41:24;10.05;;;5.70;;
64457;SDS011;58438;51.200;7.252;2022-11-11T04:44:33;11.02;;;5.72;;
64457;SDS011;58438;51.200;7.252;2022-11-11T04:47:37;11.23;;;6.63;;
64457;SDS011;58438;51.200;7.252;2022-11-11T04:50:25;10.07;;;5.65;;
64457;SDS011;58438;51.200;7.252;2022-11-11T04:53:13;13.13;;;5.80;;
64457;SDS011;58438;51.200;7.252;2022-11-11T04:56:00;12.82;;;5.57;;
64457;SDS011;58438;51.200;7.252;2022-11-11T04:59:04;9.75;;;5.10;;
64457;SDS011;58438;51.200;7.252;2022-11-11T05:02:06;12.50;;;5.50;;
64457;SDS011;58438;51.200;7.252;2022-11-11T05:05:10;11.20;;;5.43;;
64457;SDS011;58438;51.200;7.252;2022-11-11T05:07:57;13.75;;;5.50;;
64457;SDS011;58438;51.200;7.252;2022-11-11T05:11:01;10.60;;;5.05;;
64457;SDS011;58438;51.200;7.252;2022-11-11T05:13:49;8.70;;;5.25;;
64457;SDS011;58438;51.200;7.252;2022-11-11T05:19:59;9.68;;;5.20;;
64457;SDS011;58438;51.200;7.252;2022-11-11T05:23:03;10.93;;;5.00;;
64457;SDS011;58438;51.200;7.252;2022-11-11T05:25:51;10.70;;;5.07;;
64457;SDS011;58438;51.200;7.252;2022-11-11T05:28:37;9.30;;;4.75;;
64457;SDS011;58438;51.200;7.252;2022-11-11T05:31:24;11.68;;;4.95;;
64457;SDS011;58438;51.200;7.252;2022-11-11T05:34:11;11.18;;;5.65;;
64457;SDS011;58438;51.200;7.252;2022-11-11T05:37:00;12.63;;;5.68;;
64457;SDS011;58438;51.200;7.252;2022-11-11T05:39:47;10.80;;;5.00;;
64457;SDS011;58438;51.200;7.252;2022-11-11T05:42:34;10.35;;;5.38;;
64457;SDS011;58438;51.200;7.252;2022-11-11T05:45:30;12.13;;;5.03;;
64457;SDS011;58438;51.200;7.252;2022-11-11T05:48:17;10.35;;;4.63;;
64457;SDS011;58438;51.200;7.252;2022-11-11T05:51:04;9.13;;;4.78;;
64457;SDS011;58438;51.200;7.252;2022-11-11T05:54:13;9.35;;;4.63;;
64457;SDS011;58438;51.200;7.252;2022-11-11T05:57:00;10.25;;;4.78;;
64457;SDS011;58438;51.200;7.252;2022-11-11T05:59:48;11.10;;;5.05;;
64457;SDS011;58438;51.200;7.252;2022-11-11T06:02:35;10.02;;;5.55;;
64457;SDS011;58438;51.200;7.252;2022-11-11T06:05:22;8.05;;;4.70;;
64457;SDS011;58438;51.200;7.252;2022-11-11T06:08:09;16.00;;;5.55;;
64457;SDS011;58438;51.200;7.252;2022-11-11T06:10:58;10.88;;;5.07;;
64457;SDS011;58438;51.200;7.252;2022-11-11T06:13:45;10.73;;;5.38;;
64457;SDS011;58438;51.200;7.252;2022-11-11T06:16:33;12.43;;;5.18;;
64457;SDS011;58438;51.200;7.252;2022-11-11T06:19:20;13.10;;;5.03;;
64457;SDS011;58438;51.200;7.252;2022-11-11T06:22:07;10.82;;;5.10;;
64457;SDS011;58438;51.200;7.252;2022-11-11T06:24:55;10.48;;;4.90;;
64457;SDS011;58438;51.200;7.252;2022-11-11T06:28:03;11.55;;;5.30;;
64457;SDS011;58438;51.200;7.252;2022-11-11T06:30:49;10.45;;;5.38;;
64457;SDS011;58438;51.200;7.252;2022-11-11T06:33:37;8.93;;;5.10;;
64457;SDS011;58438;51.200;7.252;2022-11-11T06:36:24;9.35;;;5.47;;
64457;SDS011;58438;51.200;7.252;2022-11-11T06:39:11;12.15;;;4.72;;
64457;SDS011;58438;51.200;7.252;2022-11-11T06:41:58;9.10;;;4.68;;
64457;SDS011;58438;51.200;7.252;2022-11-11T06:44:47;10.23;;;4.90;;
64457;SDS011;58438;51.200;7.252;2022-11-11T06:47:34;8.77;;;4.57;;
64457;SDS011;58438;51.200;7.252;2022-11-11T06:50:21;10.98;;;5.68;;
64457;SDS011;58438;51.200;7.252;2022-11-11T06:53:09;8.00;;;4.65;;
64457;SDS011;58438;51.200;7.252;2022-11-11T06:55:57;10.55;;;5.45;;
64457;SDS011;58438;51.200;7.252;2022-11-11T06:58:44;14.35;;;5.68;;
64457;SDS011;58438;51.200;7.252;2022-11-11T07:01:33;9.20;;;4.03;;
64457;SDS011;58438;51.200;7.252;2022-11-11T07:04:20;11.27;;;4.18;;
64457;SDS011;58438;51.200;7.252;2022-11-11T07:07:07;11.00;;;4.80;;
64457;SDS011;58438;51.200;7.252;2022-11-11T07:09:54;8.93;;;3.60;;
64457;SDS011;58438;51.200;7.252;2022-11-11T07:12:42;10.15;;;4.97;;
64457;SDS011;58438;51.200;7.252;2022-11-11T07:15:29;8.23;;;4.32;;
64457;SDS011;58438;51.200;7.252;2022-11-11T07:18:18;10.70;;;5.60;;
64457;SDS011;58438;51.200;7.252;2022-11-11T07:21:05;10.07;;;5.10;;
64457;SDS011;58438;51.200;7.252;2022-11-11T07:23:52;9.98;;;4.78;;
64457;SDS011;58438;51.200;7.252;2022-11-11T07:26:39;10.55;;;4.82;;
64457;SDS011;58438;51.200;7.252;2022-11-11T07:29:26;9.75;;;4.55;;
64457;SDS011;58438;51.200;7.252;2022-11-11T07:32:15;11.43;;;4.53;;
64457;SDS011;58438;51.200;7.252;2022-11-11T07:35:04;9.15;;;4.60;;
64457;SDS011;58438;51.200;7.252;2022-11-11T07:37:52;11.13;;;4.60;;
64457;SDS011;58438;51.200;7.252;2022-11-11T07:40:39;10.60;;;5.10;;
64457;SDS011;58438;51.200;7.252;2022-11-11T07:43:27;8.73;;;4.90;;
64457;SDS011;58438;51.200;7.252;2022-11-11T07:46:14;9.50;;;5.10;;
64457;SDS011;58438;51.200;7.252;2022-11-11T07:49:01;8.60;;;4.35;;
64457;SDS011;58438;51.200;7.252;2022-11-11T07:51:50;12.35;;;5.32;;
64457;SDS011;58438;51.200;7.252;2022-11-11T07:54:37;8.07;;;4.70;;
64457;SDS011;58438;51.200;7.252;2022-11-11T07:57:24;11.43;;;4.78;;
64457;SDS011;58438;51.200;7.252;2022-11-11T08:00:11;8.73;;;4.68;;
64457;SDS011;58438;51.200;7.252;2022-11-11T08:02:59;9.65;;;4.93;;
64457;SDS011;58438;51.200;7.252;2022-11-11T08:05:54;11.25;;;5.55;;
64457;SDS011;58438;51.200;7.252;2022-11-11T08:08:43;8.48;;;4.60;;
64457;SDS011;58438;51.200;7.252;2022-11-11T08:11:31;9.70;;;4.70;;
64457;SDS011;58438;51.200;7.252;2022-11-11T08:17:24;11.60;;;5.75;;
64457;SDS011;58438;51.200;7.252;2022-11-11T08:20:12;6.22;;;4.38;;
64457;SDS011;58438;51.200;7.252;2022-11-11T08:23:00;9.40;;;4.75;;
64457;SDS011;58438;51.200;7.252;2022-11-11T08:26:10;7.97;;;4.07;;
64457;SDS011;58438;51.200;7.252;2022-11-11T08:28:58;9.55;;;4.90;;
64457;SDS011;58438;51.200;7.252;2022-11-11T08:31:46;9.38;;;4.53;;
64457;SDS011;58438;51.200;7.252;2022-11-11T08:34:33;5.82;;;3.90;;
64457;SDS011;58438;51.200;7.252;2022-11-11T08:37:20;9.65;;;4.55;;
64457;SDS011;58438;51.200;7.252;2022-11-11T08:40:07;8.63;;;4.50;;
64457;SDS011;58438;51.200;7.252;2022-11-11T08:42:56;9.00;;;3.72;;
64457;SDS011;58438;51.200;7.252;2022-11-11T08:45:44;6.95;;;4.05;;
64457;SDS011;58438;51.200;7.252;2022-11-11T08:48:31;12.73;;;4.65;;
64457;SDS011;58438;51.200;7.252;2022-11-11T08:51:18;7.80;;;3.90;;
64457;SDS011;58438;51.200;7.252;2022-11-11T08:54:05;7.57;;;3.65;;
64457;SDS011;58438;51.200;7.252;2022-11-11T08:56:53;7.97;;;3.63;;
64457;SDS011;58438;51.200;7.252;2022-11-11T08:59:41;7.93;;;3.92;;
64457;SDS011;58438;51.200;7.252;2022-11-11T09:02:28;9.52;;;4.22;;
64457;SDS011;58438;51.200;7.252;2022-11-11T09:05:16;10.55;;;5.20;;
64457;SDS011;58438;51.200;7.252;2022-11-11T09:08:03;10.07;;;4.82;;
64457;SDS011;58438;51.200;7.252;2022-11-11T09:10:52;7.90;;;3.70;;
64457;SDS011;58438;51.200;7.252;2022-11-11T09:13:39;8.27;;;4.63;;
64457;SDS011;58438;51.200;7.252;2022-11-11T09:16:28;7.00;;;3.63;;
64457;SDS011;58438;51.200;7.252;2022-11-11T09:19:15;7.80;;;4.25;;
64457;SDS011;58438;51.200;7.252;2022-11-11T09:22:02;7.85;;;4.57;;
64457;SDS011;58438;51.200;7.252;2022-11-11T09:24:50;7.35;;;4.18;;
64457;SDS011;58438;51.200;7.252;2022-11-11T09:27:37;6.88;;;3.42;;
64457;SDS011;58438;51.200;7.252;2022-11-11T09:30:25;7.32;;;3.67;;
64457;SDS011;58438;51.200;7.252;2022-11-11T09:33:14;7.57;;;3.80;;
64457;SDS011;58438;51.200;7.252;2022-11-11T09:36:04;8.52;;;3.53;;
64457;SDS011;58438;51.200;7.252;2022-11-11T09:38:52;6.10;;;3.38;;
64457;SDS011;58438;51.200;7.252;2022-11-11T09:41:42;7.32;;;3.78;;
64457;SDS011;58438;51.200;7.252;2022-11-11T09:44:47;5.97;;;3.38;;
64457;SDS011;58438;51.200;7.252;2022-11-11T09:47:41;8.50;;;3.67;;
64457;SDS011;58438;51.200;7.252;2022-11-11T09:50:36;6.05;;;3.50;;
64457;SDS011;58438;51.200;7.252;2022-11-11T09:53:24;7.05;;;3.63;;
64457;SDS011;58438;51.200;7.252;2022-11-11T09:56:16;9.13;;;3.40;;
64457;SDS011;58438;51.200;7.252;2022-11-11T09:59:17;6.90;;;3.50;;
64457;SDS011;58438;51.200;7.252;2022-11-11T10:02:08;9.00;;;4.07;;
64457;SDS011;58438;51.200;7.252;2022-11-11T10:04:59;6.32;;;3.17;;
64457;SDS011;58438;51.200;7.252;2022-11-11T10:07:51;3.97;;;2.17;;
64457;SDS011;58438;51.200;7.252;2022-11-11T10:10:41;5.85;;;3.35;;
64457;SDS011;58438;51.200;7.252;2022-11-11T10:13:30;7.47;;;3.00;;
64457;SDS011;58438;51.200;7.252;2022-11-11T10:16:19;5.40;;;2.85;;
64457;SDS011;58438;51.200;7.252;2022-11-11T10:19:13;5.05;;;3.28;;
64457;SDS011;58438;51.200;7.252;2022-11-11T10:22:05;5.57;;;3.13;;
64457;SDS011;58438;51.200;7.252;2022-11-11T10:25:02;5.55;;;2.92;;
64457;SDS011;58438;51.200;7.252;2022-11-11T10:27:53;5.05;;;2.95;;
64457;SDS011;58438;51.200;7.252;2022-11-11T10:30:41;7.03;;;3.08;;
64457;SDS011;58438;51.200;7.252;2022-11-11T10:33:29;4.85;;;2.85;;
64457;SDS011;58438;51.200;7.252;2022-11-11T10:36:19;6.68;;;2.60;;
64457;SDS011;58438;51.200;7.252;2022-11-11T10:39:07;5.00;;;2.63;;
64457;SDS011;58438;51.200;7.252;2022-11-11T10:41:58;8.73;;;3.22;;
64457;SDS011;58438;51.200;7.252;2022-11-11T10:44:46;6.57;;;3.33;;
64457;SDS011;58438;51.200;7.252;2022-11-11T10:47:38;7.50;;;3.65;;
64457;SDS011;58438;51.200;7.252;2022-11-11T10:50:30;4.82;;;2.97;;
64457;SDS011;58438;51.200;7.252;2022-11-11T10:53:19;7.35;;;3.58;;
64457;SDS011;58438;51.200;7.252;2022-11-11T10:56:12;5.80;;;3.42;;
64457;SDS011;58438;51.200;7.252;2022-11-11T10:59:03;6.65;;;3.30;;
64457;SDS011;58438;51.200;7.252;2022-11-11T11:01:56;5.35;;;3.13;;
64457;SDS011;58438;51.200;7.252;2022-11-11T11:04:45;5.40;;;3.05;;
64457;SDS011;58438;51.200;7.252;2022-11-11T11:07:36;4.97;;;2.90;;
64457;SDS011;58438;51.200;7.252;2022-11-11T11:10:26;6.63;;;3.38;;
64457;SDS011;58438;51.200;7.252;2022-11-11T11:13:15;5.97;;;3.00;;
64457;SDS011;58438;51.200;7.252;2022-11-11T11:16:05;4.93;;;3.22;;
64457;SDS011;58438;51.200;7.252;2022-11-11T11:19:13;4.53;;;2.42;;
64457;SDS011;58438;51.200;7.252;2022-11-11T11:22:02;4.88;;;2.58;;
64457;SDS011;58438;51.200;7.252;2022-11-11T11:24:49;4.35;;;2.33;;
64457;SDS011;58438;51.200;7.252;2022-11-11T11:27:37;3.72;;;2.17;;
64457;SDS011;58438;51.200;7.252;2022-11-11T11:30:24;3.55;;;2.25;;
64457;SDS011;58438;51.200;7.252;2022-11-11T11:33:13;6.53;;;2.80;;
64457;SDS011;58438;51.200;7.252;2022-11-11T11:36:02;6.10;;;3.03;;
64457;SDS011;58438;51.200;7.252;2022-11-11T11:39:00;4.15;;;2.40;;
64457;SDS011;58438;51.200;7.252;2022-11-11T11:41:48;8.07;;;2.80;;
64457;SDS011;58438;51.200;7.252;2022-11-11T11:44:37;4.15;;;2.42;;
64457;SDS011;58438;51.200;7.252;2022-11-11T11:47:28;5.93;;;2.75;;
64457;SDS011;58438;51.200;7.252;2022-11-11T11:50:33;4.88;;;2.60;;
64457;SDS011;58438;51.200;7.252;2022-11-11T11:53:33;2.90;;;2.15;;
64457;SDS011;58438;51.200;7.252;2022-11-11T11:56:24;6.65;;;3.05;;
64457;SDS011;58438;51.200;7.252;2022-11-11T11:59:15;6.72;;;3.20;;
64457;SDS011;58438;51.200;7.252;2022-11-11T12:02:04;6.40;;;3.25;;
64457;SDS011;58438;51.200;7.252;2022-11-11T12:05:01;5.88;;;3.10;;
64457;SDS011;58438;51.200;7.252;2022-11-11T12:07:55;5.50;;;2.53;;
64457;SDS011;58438;51.200;7.252;2022-11-11T12:10:47;5.03;;;2.85;;
64457;SDS011;58438;51.200;7.252;2022-11-11T12:13:38;4.22;;;3.13;;
64457;SDS011;58438;51.200;7.252;2022-11-11T12:16:30;5.65;;;3.05;;
64457;SDS011;58438;51.200;7.252;2022-11-11T12:19:31;4.60;;;2.60;;
64457;SDS011;58438;51.200;7.252;2022-11-11T12:22:24;4.03;;;1.63;;
64457;SDS011;58438;51.200;7.252;2022-11-11T12:25:17;3.75;;;2.30;;
64457;SDS011;58438;51.200;7.252;2022-11-11T12:28:09;5.70;;;2.60;;
64457;SDS011;58438;51.200;7.252;2022-11-11T12:31:09;5.45;;;2.78;;
64457;SDS011;58438;51.200;7.252;2022-11-11T12:34:00;4.22;;;2.35;;
64457;SDS011;58438;51.200;7.252;2022-11-11T12:36:52;4.70;;;1.85;;
64457;SDS011;58438;51.200;7.252;2022-11-11T12:39:49;5.45;;;2.20;;
64457;SDS011;58438;51.200;7.252;2022-11-11T12:42:43;5.60;;;2.22;;
64457;SDS011;58438;51.200;7.252;2022-11-11T12:45:35;6.88;;;3.08;;
64457;SDS011;58438;51.200;7.252;2022-11-11T12:48:29;5.38;;;2.30;;
64457;SDS011;58438;51.200;7.252;2022-11-11T12:51:20;7.22;;;2.58;;
64457;SDS011;58438;51.200;7.252;2022-11-11T12:54:16;4.55;;;2.60;;
64457;SDS011;58438;51.200;7.252;2022-11-11T12:57:08;5.63;;;3.10;;
64457;SDS011;58438;51.200;7.252;2022-11-11T13:00:07;4.90;;;2.73;;
64457;SDS011;58438;51.200;7.252;2022-11-11T13:03:05;3.85;;;2.55;;
64457;SDS011;58438;51.200;7.252;2022-11-11T13:05:57;6.57;;;3.28;;
64457;SDS011;58438;51.200;7.252;2022-11-11T13:08:50;4.60;;;2.90;;
64457;SDS011;58438;51.200;7.252;2022-11-11T13:11:41;4.43;;;2.93;;
64457;SDS011;58438;51.200;7.252;2022-11-11T13:14:35;6.15;;;3.28;;
64457;SDS011;58438;51.200;7.252;2022-11-11T13:17:25;5.72;;;3.03;;
64457;SDS011;58438;51.200;7.252;2022-11-11T13:20:15;4.80;;;2.55;;
64457;SDS011;58438;51.200;7.252;2022-11-11T13:23:06;5.57;;;2.80;;
64457;SDS011;58438;51.200;7.252;2022-11-11T13:25:55;5.63;;;2.40;;
64457;SDS011;58438;51.200;7.252;2022-11-11T13:28:46;5.13;;;2.53;;
64457;SDS011;58438;51.200;7.252;2022-11-11T13:31:35;5.82;;;2.65;;
64457;SDS011;58438;51.200;7.252;2022-11-11T13:34:24;4.20;;;2.55;;
64457;SDS011;58438;51.200;7.252;2022-11-11T13:37:17;6.18;;;2.92;;
64457;SDS011;58438;51.200;7.252;2022-11-11T13:40:06;4.47;;;2.87;;
64457;SDS011;58438;51.200;7.252;2022-11-11T13:42:54;4.10;;;3.20;;
64457;SDS011;58438;51.200;7.252;2022-11-11T13:45:42;5.57;;;2.78;;
64457;SDS011;58438;51.200;7.252;2022-11-11T13:48:30;6.22;;;2.95;;
64457;SDS011;58438;51.200;7.252;2022-11-11T13:51:21;4.45;;;2.58;;
64457;SDS011;58438;51.200;7.252;2022-11-11T13:54:19;5.25;;;2.70;;
64457;SDS011;58438;51.200;7.252;2022-11-11T13:57:08;4.25;;;2.63;;
64457;SDS011;58438;51.200;7.252;2022-11-11T14:00:02;6.07;;;2.95;;
64457;SDS011;58438;51.200;7.252;2022-11-11T14:03:03;5.10;;;2.90;;
64457;SDS011;58438;51.200;7.252;2022-11-11T14:12:35;3.90;;;2.85;;
64457;SDS011;58438;51.200;7.252;2022-11-11T14:15:31;5.10;;;2.90;;
64457;SDS011;58438;51.200;7.252;2022-11-11T14:18:32;6.78;;;3.20;;
64457;SDS011;58438;51.200;7.252;2022-11-11T14:21:41;5.45;;;2.63;;
64457;SDS011;58438;51.200;7.252;2022-11-11T14:24:34;5.43;;;2.92;;
64457;SDS011;58438;51.200;7.252;2022-11-11T14:27:23;5.70;;;2.70;;
64457;SDS011;58438;51.200;7.252;2022-11-11T14:30:25;4.32;;;2.65;;
64457;SDS011;58438;51.200;7.252;2022-11-11T14:33:15;4.65;;;2.70;;
64457;SDS011;58438;51.200;7.252;2022-11-11T14:36:06;4.18;;;2.20;;
64457;SDS011;58438;51.200;7.252;2022-11-11T14:38:59;5.20;;;2.22;;
64457;SDS011;58438;51.200;7.252;2022-11-11T14:41:50;3.70;;;2.20;;
64457;SDS011;58438;51.200;7.252;2022-11-11T14:44:39;4.90;;;2.47;;
64457;SDS011;58438;51.200;7.252;2022-11-11T14:47:31;5.72;;;2.17;;
64457;SDS011;58438;51.200;7.252;2022-11-11T14:53:27;3.15;;;1.90;;
64457;SDS011;58438;51.200;7.252;2022-11-11T14:56:17;3.92;;;2.05;;
64457;SDS011;58438;51.200;7.252;2022-11-11T14:59:05;3.20;;;2.05;;
64457;SDS011;58438;51.200;7.252;2022-11-11T15:01:54;3.55;;;2.10;;
64457;SDS011;58438;51.200;7.252;2022-11-11T15:04:42;3.63;;;1.92;;
64457;SDS011;58438;51.200;7.252;2022-11-11T15:07:42;2.92;;;1.90;;
64457;SDS011;58438;51.200;7.252;2022-11-11T15:10:32;4.03;;;1.65;;
64457;SDS011;58438;51.200;7.252;2022-11-11T15:13:24;2.50;;;1.70;;
64457;SDS011;58438;51.200;7.252;2022-11-11T15:16:19;3.78;;;1.80;;
64457;SDS011;58438;51.200;7.252;2022-11-11T15:19:15;6.22;;;2.15;;
64457;SDS011;58438;51.200;7.252;2022-11-11T15:22:23;5.88;;;1.80;;
64457;SDS011;58438;51.200;7.252;2022-11-11T15:25:26;5.53;;;1.80;;
64457;SDS011;58438;51.200;7.252;2022-11-11T15:28:19;3.13;;;1.90;;
64457;SDS011;58438;51.200;7.252;2022-11-11T15:31:10;4.55;;;1.83;;
64457;SDS011;58438;51.200;7.252;2022-11-11T15:34:06;7.28;;;3.40;;
64457;SDS011;58438;51.200;7.252;2022-11-11T15:36:57;5.40;;;2.80;;
64457;SDS011;58438;51.200;7.252;2022-11-11T15:39:46;5.00;;;3.20;;
64457;SDS011;58438;51.200;7.252;2022-11-11T15:42:36;4.00;;;3.25;;
64457;SDS011;58438;51.200;7.252;2022-11-11T15:45:27;5.20;;;3.45;;
64457;SDS011;58438;51.200;7.252;2022-11-11T15:48:19;6.90;;;3.20;;
64457;SDS011;58438;51.200;7.252;2022-11-11T15:51:16;5.13;;;3.33;;
64457;SDS011;58438;51.200;7.252;2022-11-11T15:54:15;6.53;;;3.88;;
64457;SDS011;58438;51.200;7.252;2022-11-11T15:59:55;13.15;;;5.38;;
64457;SDS011;58438;51.200;7.252;2022-11-11T16:02:42;11.38;;;5.93;;
64457;SDS011;58438;51.200;7.252;2022-11-11T16:05:29;10.95;;;5.03;;
64457;SDS011;58438;51.200;7.252;2022-11-11T16:08:17;9.25;;;4.18;;
64457;SDS011;58438;51.200;7.252;2022-11-11T16:11:08;6.05;;;3.45;;
64457;SDS011;58438;51.200;7.252;2022-11-11T16:13:57;5.38;;;3.60;;
64457;SDS011;58438;51.200;7.252;2022-11-11T16:16:54;5.25;;;3.22;;
64457;SDS011;58438;51.200;7.252;2022-11-11T16:19:43;5.72;;;3.17;;
64457;SDS011;58438;51.200;7.252;2022-11-11T16:22:34;5.85;;;3.95;;
64457;SDS011;58438;51.200;7.252;2022-11-11T16:25:22;7.32;;;3.45;;
64457;SDS011;58438;51.200;7.252;2022-11-11T16:28:10;5.70;;;3.97;;
64457;SDS011;58438;51.200;7.252;2022-11-11T16:30:58;8.70;;;3.80;;
64457;SDS011;58438;51.200;7.252;2022-11-11T16:33:46;6.95;;;4.00;;
64457;SDS011;58438;51.200;7.252;2022-11-11T16:36:33;6.22;;;3.35;;
64457;SDS011;58438;51.200;7.252;2022-11-11T16:39:21;5.93;;;2.67;;
64457;SDS011;58438;51.200;7.252;2022-11-11T16:42:16;4.85;;;3.00;;
64457;SDS011;58438;51.200;7.252;2022-11-11T16:45:05;5.30;;;3.45;;
64457;SDS011;58438;51.200;7.252;2022-11-11T16:47:52;5.75;;;3.47;;
64457;SDS011;58438;51.200;7.252;2022-11-11T16:50:52;7.45;;;3.50;;
64457;SDS011;58438;51.200;7.252;2022-11-11T16:53:42;7.28;;;3.33;;
64457;SDS011;58438;51.200;7.252;2022-11-11T16:56:31;5.50;;;3.25;;
64457;SDS011;58438;51.200;7.252;2022-11-11T16:59:19;3.60;;;2.88;;
64457;SDS011;58438;51.200;7.252;2022-11-11T17:02:13;8.15;;;3.85;;
64457;SDS011;58438;51.200;7.252;2022-11-11T17:05:00;6.10;;;3.88;;
64457;SDS011;58438;51.200;7.252;2022-11-11T17:07:49;6.60;;;3.50;;
64457;SDS011;58438;51.200;7.252;2022-11-11T17:10:37;6.32;;;3.25;;
64457;SDS011;58438;51.200;7.252;2022-11-11T17:13:25;8.57;;;4.05;;
64457;SDS011;58438;51.200;7.252;2022-11-11T17:16:13;6.32;;;3.60;;
64457;SDS011;58438;51.200;7.252;2022-11-11T17:19:00;5.18;;;3.20;;
64457;SDS011;58438;51.200;7.252;2022-11-11T17:21:48;6.00;;;3.50;;
64457;SDS011;58438;51.200;7.252;2022-11-11T17:24:37;7.40;;;3.40;;
64457;SDS011;58438;51.200;7.252;2022-11-11T17:27:26;9.50;;;3.60;;
64457;SDS011;58438;51.200;7.252;2022-11-11T17:30:14;6.18;;;3.58;;
64457;SDS011;58438;51.200;7.252;2022-11-11T17:33:02;7.30;;;3.20;;
64457;SDS011;58438;51.200;7.252;2022-11-11T17:35:50;5.78;;;3.65;;